sim
Sign-in with your pilot id or email,
or register
Callsign
Passwort

Schedule Details

Flight Number: DLH2471
Departure: London Heathrow Airport (EGLL) at 08:45
Arrival: Munich Airport (EDDM) at 10:30
Route: Lufthansa Passenger Schedule. Enter filed route here before submitting Pirep.

Weather Information
Getting current METAR information for EGLL 222020Z AUTO 23011KT 9999 OVC019 18/15 Q1006 NOSIG
Getting current METAR information for EDDM 222020Z VRB02KT CAVOK 16/14 Q1010 NOSIG

Schedule Frequency

Route Map